Time;durP1;ratioP1;P1;durP2;ratioP2;P2;SDS_P1;SDS_P2;PMS_P1;PMS_P2;Temp;Humidity;BMP_temperature;BMP_pressure;BME280_temperature;BME280_humidity;BME280_pressure;Samples;Min_cycle;Max_cycle;Signal;HPM_P1;HPM_P2
2021/04/25 00:01:23;;;;;;;9.85;4.68;;;8.00;99.90;;;;;;5067325;28;20201;-76
2021/04/25 00:03:50;;;;;;;10.85;4.70;;;8.00;99.90;;;;;;5079198;28;20236;-74
2021/04/25 00:06:17;;;;;;;8.38;4.95;;;8.00;99.90;;;;;;5067333;28;20227;-74
2021/04/25 00:08:43;;;;;;;16.13;4.85;;;7.90;99.90;;;;;;5073616;28;20212;-74
2021/04/25 00:11:10;;;;;;;10.63;4.03;;;7.90;99.90;;;;;;5067708;28;20208;-74
2021/04/25 00:13:36;;;;;;;10.57;4.70;;;7.90;99.90;;;;;;5070401;28;20211;-74
2021/04/25 00:16:03;;;;;;;10.43;4.63;;;7.90;99.90;;;;;;5071016;28;20217;-74
2021/04/25 00:18:30;;;;;;;8.20;4.55;;;7.90;99.90;;;;;;5076389;28;20639;-74
2021/04/25 00:20:57;;;;;;;7.95;4.38;;;7.90;99.90;;;;;;5067927;28;20205;-74
2021/04/25 00:23:23;;;;;;;12.93;4.63;;;7.90;99.90;;;;;;5076624;28;20207;-74
2021/04/25 00:25:50;;;;;;;9.95;4.63;;;7.90;99.90;;;;;;5067102;28;20229;-74
2021/04/25 00:28:16;;;;;;;7.68;4.53;;;7.90;99.90;;;;;;5072044;28;20201;-75
2021/04/25 00:30:43;;;;;;;5.28;3.72;;;7.80;99.90;;;;;;5067172;28;20570;-75
2021/04/25 00:33:09;;;;;;;6.50;3.97;;;7.80;99.90;;;;;;5067439;28;20224;-75
2021/04/25 00:35:36;;;;;;;9.13;4.25;;;7.70;99.90;;;;;;5067321;28;20209;-75
2021/04/25 00:38:03;;;;;;;13.43;4.10;;;7.70;99.90;;;;;;5070530;28;20204;-75
2021/04/25 00:40:30;;;;;;;7.13;3.90;;;7.60;99.90;;;;;;5065881;28;20223;-75
2021/04/25 00:42:57;;;;;;;6.32;3.38;;;7.50;99.90;;;;;;5066387;28;20723;-75
2021/04/25 00:45:24;;;;;;;5.43;3.33;;;7.40;99.90;;;;;;5066641;28;20221;-75
2021/04/25 00:47:51;;;;;;;8.30;4.20;;;7.40;99.90;;;;;;5067445;28;20200;-75
2021/04/25 00:50:20;;;;;;;7.63;3.90;;;7.30;99.90;;;;;;5066529;28;20698;-74
2021/04/25 00:52:48;;;;;;;10.63;4.57;;;7.30;99.90;;;;;;5067132;28;20201;-74
2021/04/25 00:55:17;;;;;;;6.32;4.20;;;7.20;99.90;;;;;;5071837;28;20197;-75
2021/04/25 00:57:45;;;;;;;6.28;4.05;;;7.10;99.90;;;;;;5066800;28;20201;-74
2021/04/25 01:00:14;;;;;;;12.02;5.32;;;7.10;99.90;;;;;;5066415;28;20198;-74
2021/04/25 01:02:40;;;;;;;11.77;4.82;;;7.10;99.90;;;;;;5066783;28;20228;-74
2021/04/25 01:05:10;;;;;;;8.70;4.68;;;7.10;99.90;;;;;;5066463;28;20228;-74
2021/04/25 01:07:36;;;;;;;10.15;4.50;;;7.00;99.90;;;;;;5069918;28;20205;-74
2021/04/25 01:10:04;;;;;;;8.38;3.97;;;7.00;99.90;;;;;;5070553;28;20201;-74
2021/04/25 01:12:32;;;;;;;11.38;4.22;;;6.90;99.90;;;;;;5069171;28;20631;-74
2021/04/25 01:14:58;;;;;;;12.50;4.53;;;6.90;99.90;;;;;;5079179;28;20200;-74
2021/04/25 01:17:25;;;;;;;6.95;4.65;;;6.80;99.90;;;;;;5071118;28;20208;-74
2021/04/25 01:19:52;;;;;;;8.70;4.53;;;6.70;99.90;;;;;;5065968;28;20212;-74
2021/04/25 01:22:19;;;;;;;7.65;4.35;;;6.60;99.90;;;;;;5067721;28;20684;-74
2021/04/25 01:24:46;;;;;;;10.18;4.65;;;6.60;99.90;;;;;;5070253;28;20221;-74
2021/04/25 01:27:12;;;;;;;6.40;4.00;;;6.50;99.90;;;;;;5066514;28;20209;-74
2021/04/25 01:29:39;;;;;;;7.60;4.78;;;6.50;99.90;;;;;;5066279;28;20212;-74
2021/04/25 01:32:07;;;;;;;9.75;4.20;;;6.40;99.90;;;;;;5073864;28;20205;-75
2021/04/25 01:34:33;;;;;;;13.65;4.47;;;6.30;99.90;;;;;;5072384;28;20194;-74
2021/04/25 01:36:59;;;;;;;7.38;4.53;;;6.30;99.90;;;;;;5065947;28;20726;-75
2021/04/25 01:39:28;;;;;;;6.05;4.35;;;6.20;99.90;;;;;;5065920;28;20197;-75
2021/04/25 01:41:54;;;;;;;8.05;3.97;;;6.20;99.90;;;;;;5065778;28;20209;-75
2021/04/25 01:44:21;;;;;;;6.85;4.40;;;6.10;99.90;;;;;;5065726;28;20224;-75
2021/04/25 01:46:47;;;;;;;10.73;5.47;;;6.10;99.90;;;;;;5066319;28;20561;-75
2021/04/25 01:49:14;;;;;;;10.60;5.30;;;6.00;99.90;;;;;;5064529;28;20251;-75
2021/04/25 01:51:41;;;;;;;10.30;5.07;;;5.90;99.90;;;;;;5065749;28;20272;-76
2021/04/25 01:54:08;;;;;;;14.00;4.97;;;5.90;99.90;;;;;;5068850;28;20201;-75
2021/04/25 01:56:35;;;;;;;15.32;5.53;;;5.90;99.90;;;;;;5075607;28;20279;-74
2021/04/25 01:59:02;;;;;;;8.20;4.07;;;5.90;99.90;;;;;;5065562;28;20215;-75
2021/04/25 02:01:29;;;;;;;11.85;4.38;;;5.80;99.90;;;;;;5065454;28;20234;-75
2021/04/25 02:03:55;;;;;;;10.02;4.32;;;5.80;99.90;;;;;;5065223;28;20266;-75
2021/04/25 02:06:21;;;;;;;10.25;4.53;;;5.80;99.90;;;;;;5071022;28;20658;-75
2021/04/25 02:08:48;;;;;;;22.67;4.88;;;5.80;99.90;;;;;;5066184;28;20616;-74
2021/04/25 02:11:15;;;;;;;12.70;4.72;;;5.70;99.90;;;;;;5065699;28;20202;-75
2021/04/25 02:13:42;;;;;;;7.85;4.75;;;5.70;99.90;;;;;;5066372;28;20201;-75
2021/04/25 02:16:08;;;;;;;14.48;5.47;;;5.70;99.90;;;;;;5076066;28;20595;-74
2021/04/25 02:18:35;;;;;;;10.13;4.63;;;5.70;99.90;;;;;;5071781;28;20709;-74
2021/04/25 02:21:02;;;;;;;6.43;4.85;;;5.60;99.90;;;;;;5068592;28;20691;-74
2021/04/25 02:23:28;;;;;;;10.93;4.95;;;5.60;99.90;;;;;;5072616;28;20579;-75
2021/04/25 02:25:55;;;;;;;10.75;5.22;;;5.60;99.90;;;;;;5065462;28;20225;-74
2021/04/25 02:28:21;;;;;;;9.55;4.68;;;5.60;99.90;;;;;;5075266;28;20204;-75
2021/04/25 02:30:48;;;;;;;13.73;5.00;;;5.60;99.90;;;;;;5073532;28;20205;-75
2021/04/25 02:33:15;;;;;;;7.15;4.78;;;5.60;99.90;;;;;;5072234;28;20201;-74
2021/04/25 02:35:42;;;;;;;10.85;5.57;;;5.50;99.90;;;;;;5065466;28;20258;-75
2021/04/25 02:38:08;;;;;;;7.03;4.43;;;5.50;99.90;;;;;;5065906;28;20659;-74
2021/04/25 02:40:35;;;;;;;8.35;4.90;;;5.40;99.90;;;;;;5065898;28;20545;-75
2021/04/25 02:43:03;;;;;;;7.03;4.90;;;5.40;99.90;;;;;;5065252;28;20205;-74
2021/04/25 02:45:30;;;;;;;13.38;5.20;;;5.40;99.90;;;;;;5065474;28;20226;-74
2021/04/25 02:48:00;;;;;;;7.47;4.63;;;5.30;99.90;;;;;;5076823;28;20228;-74
2021/04/25 02:50:30;;;;;;;11.98;5.28;;;5.40;99.90;;;;;;5069271;28;20207;-74
2021/04/25 02:52:57;;;;;;;9.60;4.80;;;5.30;99.90;;;;;;5075951;28;20201;-74
2021/04/25 02:55:24;;;;;;;11.80;5.88;;;5.30;99.90;;;;;;5076170;28;20265;-74
2021/04/25 02:57:51;;;;;;;11.23;3.95;;;5.30;99.90;;;;;;5068991;28;20565;-75
2021/04/25 03:00:21;;;;;;;6.93;4.38;;;5.30;99.90;;;;;;5069133;28;20251;-75
2021/04/25 03:02:47;;;;;;;9.75;4.80;;;5.30;99.90;;;;;;5077490;28;20239;-75
2021/04/25 03:05:15;;;;;;;15.27;6.40;;;5.40;99.90;;;;;;5068885;28;20236;-74
2021/04/25 03:07:43;;;;;;;9.38;5.15;;;5.30;99.90;;;;;;5079373;28;20205;-75
2021/04/25 03:10:11;;;;;;;13.07;6.57;;;5.30;99.90;;;;;;5070232;28;20205;-75
2021/04/25 03:12:37;;;;;;;7.45;4.38;;;5.30;99.90;;;;;;5077747;28;20201;-75
2021/04/25 03:15:05;;;;;;;12.80;5.80;;;5.30;99.90;;;;;;5068553;28;20209;-75
2021/04/25 03:17:32;;;;;;;6.70;4.55;;;5.30;99.90;;;;;;5068456;28;20210;-74
2021/04/25 03:19:58;;;;;;;11.82;5.82;;;5.40;99.90;;;;;;5072917;28;20193;-75
2021/04/25 03:22:25;;;;;;;8.88;4.70;;;5.30;99.90;;;;;;5068134;28;20205;-75
2021/04/25 03:24:52;;;;;;;11.48;5.82;;;5.30;99.90;;;;;;5077713;28;20224;-74
2021/04/25 03:27:19;;;;;;;12.60;5.25;;;5.30;99.90;;;;;;5070102;28;20196;-75
2021/04/25 03:29:45;;;;;;;14.63;5.53;;;5.30;99.90;;;;;;5068490;28;20209;-75
2021/04/25 03:32:11;;;;;;;15.25;5.85;;;5.30;99.90;;;;;;5067796;28;20675;-75
2021/04/25 03:34:38;;;;;;;13.82;5.25;;;5.30;99.90;;;;;;5074473;28;20232;-75
2021/04/25 03:37:04;;;;;;;9.82;5.13;;;5.30;99.90;;;;;;5067951;28;20655;-75
2021/04/25 03:39:32;;;;;;;9.70;5.25;;;5.20;99.90;;;;;;5069170;28;20201;-75
2021/04/25 03:41:58;;;;;;;8.98;6.00;;;5.30;99.90;;;;;;5067065;28;20198;-75
2021/04/25 03:44:25;;;;;;;8.13;5.28;;;5.20;99.90;;;;;;5067690;28;20229;-75
2021/04/25 03:46:51;;;;;;;10.93;6.18;;;5.20;99.90;;;;;;5072510;28;20206;-75
2021/04/25 03:49:20;;;;;;;10.13;5.25;;;5.10;99.90;;;;;;5075174;28;20997;-75
2021/04/25 03:51:48;;;;;;;15.57;5.13;;;5.10;99.90;;;;;;5089837;28;20209;-75
2021/04/25 03:54:14;;;;;;;9.65;5.25;;;5.10;99.90;;;;;;5067982;28;20205;-76
2021/04/25 03:56:42;;;;;;;14.50;6.25;;;5.00;99.90;;;;;;5067623;28;20202;-76
2021/04/25 03:59:08;;;;;;;10.93;5.43;;;5.10;99.90;;;;;;5070433;28;20212;-75
2021/04/25 04:01:35;;;;;;;9.68;5.22;;;5.00;99.90;;;;;;5072852;28;20196;-75
2021/04/25 04:04:02;;;;;;;11.13;5.28;;;5.00;99.90;;;;;;5077341;28;20232;-75
2021/04/25 04:06:28;;;;;;;10.73;5.82;;;5.00;99.90;;;;;;5072289;28;20213;-75
2021/04/25 04:08:55;;;;;;;10.85;5.93;;;4.90;99.90;;;;;;5067225;28;20209;-75
2021/04/25 04:11:21;;;;;;;11.32;5.45;;;5.00;99.90;;;;;;5067337;28;20204;-75
2021/04/25 04:13:49;;;;;;;9.77;5.70;;;5.00;99.90;;;;;;5067704;28;20808;-75
2021/04/25 04:16:18;;;;;;;11.95;6.63;;;5.10;99.90;;;;;;5066813;28;20205;-75
2021/04/25 04:18:44;;;;;;;11.57;5.50;;;5.10;99.90;;;;;;5068064;28;20243;-75
2021/04/25 04:21:11;;;;;;;11.03;5.80;;;5.00;99.90;;;;;;5069828;28;20454;-75
2021/04/25 04:23:37;;;;;;;10.45;6.20;;;5.10;99.90;;;;;;5073548;28;20469;-75
2021/04/25 04:26:04;;;;;;;11.10;5.40;;;5.10;99.90;;;;;;5067057;28;20232;-75
2021/04/25 04:28:30;;;;;;;11.52;6.43;;;5.10;99.90;;;;;;5067086;28;20201;-75
2021/04/25 04:30:58;;;;;;;13.05;5.65;;;5.20;99.90;;;;;;5067442;28;20205;-75
2021/04/25 04:33:24;;;;;;;12.77;5.70;;;5.20;99.90;;;;;;5072113;28;20204;-74
2021/04/25 04:35:51;;;;;;;14.55;5.68;;;5.30;99.90;;;;;;5067690;28;20216;-75
2021/04/25 04:38:17;;;;;;;10.85;5.03;;;5.40;99.90;;;;;;5067416;28;20228;-75
2021/04/25 04:40:43;;;;;;;15.65;6.15;;;5.40;99.90;;;;;;5067046;28;20242;-75
2021/04/25 04:43:10;;;;;;;10.60;5.18;;;5.40;99.90;;;;;;5067645;28;20201;-75
2021/04/25 04:45:36;;;;;;;10.50;5.50;;;5.50;99.90;;;;;;5068798;28;20246;-75
2021/04/25 04:48:04;;;;;;;9.38;4.93;;;5.50;99.90;;;;;;5070050;28;20205;-75
2021/04/25 04:50:31;;;;;;;11.43;5.10;;;5.60;99.90;;;;;;5072036;28;20201;-75
2021/04/25 04:52:57;;;;;;;12.93;5.35;;;5.70;99.90;;;;;;5075770;28;20205;-75
2021/04/25 04:55:24;;;;;;;11.57;5.70;;;5.80;99.90;;;;;;5066961;28;20229;-75
2021/04/25 04:57:50;;;;;;;9.23;5.20;;;5.90;99.90;;;;;;5074671;28;20201;-75
2021/04/25 05:00:17;;;;;;;9.80;5.35;;;6.00;99.90;;;;;;5069752;28;20619;-76
2021/04/25 05:02:43;;;;;;;10.85;5.10;;;6.00;99.90;;;;;;5066603;28;20311;-76
2021/04/25 05:05:12;;;;;;;14.45;4.97;;;6.20;99.90;;;;;;5066187;28;20233;-76
2021/04/25 05:07:39;;;;;;;7.47;4.28;;;6.30;99.90;;;;;;5073374;28;20214;-76
2021/04/25 05:10:07;;;;;;;12.23;5.13;;;6.40;99.90;;;;;;5064649;28;20220;-76
2021/04/25 05:12:33;;;;;;;12.18;5.05;;;6.40;99.90;;;;;;5066439;28;20201;-76
2021/04/25 05:15:00;;;;;;;7.32;4.07;;;6.50;99.90;;;;;;5078748;28;20212;-77
2021/04/25 05:17:27;;;;;;;7.05;4.35;;;6.60;99.90;;;;;;5081182;28;20225;-76
2021/04/25 05:19:53;;;;;;;7.53;4.45;;;6.60;99.90;;;;;;5067264;28;20223;-76
2021/04/25 05:22:21;;;;;;;13.00;5.13;;;6.60;99.90;;;;;;5065863;28;20265;-76
2021/04/25 05:24:47;;;;;;;16.05;5.50;;;6.60;99.90;;;;;;5066350;28;20233;-77
2021/04/25 05:27:14;;;;;;;12.05;5.47;;;6.70;99.90;;;;;;5066928;28;20211;-76
2021/04/25 05:29:40;;;;;;;7.18;4.90;;;6.80;99.90;;;;;;5066184;28;20197;-77
2021/04/25 05:32:07;;;;;;;13.65;5.45;;;6.80;99.90;;;;;;5066510;28;20201;-75
2021/04/25 05:34:34;;;;;;;10.48;5.40;;;6.90;99.90;;;;;;5071827;28;20208;-76
2021/04/25 05:37:00;;;;;;;9.20;5.50;;;6.90;99.90;;;;;;5068767;28;20231;-75
2021/04/25 05:39:27;;;;;;;7.88;5.35;;;7.00;99.90;;;;;;5076584;28;20200;-75
2021/04/25 05:41:54;;;;;;;6.75;4.28;;;7.10;99.90;;;;;;5066063;28;20209;-74
2021/04/25 05:44:20;;;;;;;10.57;4.70;;;7.10;99.90;;;;;;5065330;28;20255;-75
2021/04/25 05:46:47;;;;;;;7.78;5.25;;;7.20;99.90;;;;;;5066357;28;20201;-75
2021/04/25 05:49:13;;;;;;;11.52;4.95;;;7.20;99.90;;;;;;5065956;28;20283;-75
2021/04/25 05:51:40;;;;;;;12.02;4.93;;;7.30;99.90;;;;;;5071203;28;20213;-76
2021/04/25 05:54:07;;;;;;;13.20;5.15;;;7.40;99.90;;;;;;5066781;28;20205;-75
2021/04/25 05:56:34;;;;;;;6.95;4.55;;;7.50;99.90;;;;;;5067622;28;20205;-75
2021/04/25 05:59:01;;;;;;;9.15;5.18;;;7.50;99.90;;;;;;5064883;28;20260;-75
2021/04/25 06:01:27;;;;;;;14.20;6.00;;;7.60;99.90;;;;;;5068546;28;20228;-76
2021/04/25 06:03:54;;;;;;;10.73;5.13;;;7.60;99.90;;;;;;5066036;28;20239;-76
2021/04/25 06:06:20;;;;;;;10.40;6.00;;;7.70;99.90;;;;;;5065831;28;20317;-76
2021/04/25 06:08:47;;;;;;;8.75;4.50;;;7.80;99.90;;;;;;5065942;28;20210;-76
2021/04/25 06:11:13;;;;;;;7.70;5.50;;;7.80;99.90;;;;;;5071363;28;20601;-76
2021/04/25 06:13:41;;;;;;;7.63;5.25;;;7.80;99.90;;;;;;5065734;28;20213;-75
2021/04/25 06:16:08;;;;;;;11.57;6.30;;;7.80;99.90;;;;;;5066036;28;20585;-75
2021/04/25 06:18:34;;;;;;;9.65;6.47;;;7.80;99.90;;;;;;5066142;28;20203;-76
2021/04/25 06:21:01;;;;;;;13.30;6.38;;;7.80;99.90;;;;;;5068448;28;20215;-75
2021/04/25 06:23:27;;;;;;;16.05;6.68;;;7.80;99.90;;;;;;5070275;28;20197;-76
2021/04/25 06:25:55;;;;;;;15.23;7.35;;;7.90;99.90;;;;;;5071477;28;20240;-78
2021/04/25 06:28:22;;;;;;;10.55;6.00;;;7.90;99.90;;;;;;5077190;28;20287;-75
2021/04/25 06:30:49;;;;;;;8.55;6.60;;;7.90;99.90;;;;;;5069419;28;20230;-74
2021/04/25 06:33:15;;;;;;;9.65;6.25;;;7.90;99.90;;;;;;5068470;28;20201;-73
2021/04/25 06:35:42;;;;;;;10.40;6.80;;;8.00;99.90;;;;;;5069553;28;20205;-75
2021/04/25 06:38:08;;;;;;;11.48;7.15;;;8.00;99.90;;;;;;5070219;28;20235;-74
2021/04/25 06:40:36;;;;;;;16.83;8.18;;;8.10;99.90;;;;;;5073250;28;20201;-74
2021/04/25 06:43:04;;;;;;;12.57;8.38;;;8.00;99.90;;;;;;5079642;28;20209;-75
2021/04/25 06:45:31;;;;;;;12.93;8.10;;;8.00;99.90;;;;;;5073471;28;20682;-76
2021/04/25 06:47:59;;;;;;;9.23;7.00;;;8.00;99.90;;;;;;5081332;28;20609;-75
2021/04/25 06:50:26;;;;;;;10.02;8.20;;;8.00;99.90;;;;;;5073820;28;20201;-75
2021/04/25 06:52:52;;;;;;;8.73;6.30;;;8.10;99.90;;;;;;5075592;28;20215;-75
2021/04/25 06:55:23;;;;;;;6.70;5.88;;;8.10;99.90;;;;;;5071855;28;20640;-75
2021/04/25 06:57:51;;;;;;;14.30;6.97;;;8.10;99.90;;;;;;5073182;28;20286;-75
2021/04/25 07:00:20;;;;;;;11.77;7.13;;;8.20;99.90;;;;;;5069334;28;20199;-75
2021/04/25 07:02:46;;;;;;;6.82;6.22;;;8.20;99.90;;;;;;5067538;28;20236;-76
2021/04/25 07:05:14;;;;;;;11.77;6.90;;;8.30;99.90;;;;;;5068449;28;20229;-76
2021/04/25 07:07:41;;;;;;;9.40;5.80;;;8.30;99.90;;;;;;5069561;28;20202;-76
2021/04/25 07:10:09;;;;;;;9.65;5.10;;;8.30;99.90;;;;;;5068412;28;20665;-74
2021/04/25 07:12:36;;;;;;;8.35;5.10;;;8.40;99.90;;;;;;5069944;28;20223;-74
2021/04/25 07:15:04;;;;;;;8.25;5.00;;;8.50;99.90;;;;;;5069472;28;20224;-75
2021/04/25 07:17:30;;;;;;;6.80;4.47;;;8.60;99.90;;;;;;5069044;28;20200;-75
2021/04/25 07:19:57;;;;;;;8.80;5.47;;;8.80;99.90;;;;;;5068559;28;20203;-74
2021/04/25 07:22:24;;;;;;;7.35;4.80;;;8.90;99.90;;;;;;5077767;28;20204;-75
2021/04/25 07:24:51;;;;;;;10.80;6.20;;;8.90;99.90;;;;;;5074856;28;20216;-75
2021/04/25 07:27:19;;;;;;;10.50;5.15;;;8.80;99.90;;;;;;5081000;28;20216;-75
2021/04/25 07:29:47;;;;;;;11.00;5.00;;;8.80;99.90;;;;;;5081419;28;20200;-74
2021/04/25 07:32:13;;;;;;;8.65;4.30;;;8.80;99.90;;;;;;5081894;28;20201;-75
2021/04/25 07:34:40;;;;;;;6.22;3.95;;;8.80;99.90;;;;;;5078777;28;20209;-75
2021/04/25 07:37:07;;;;;;;6.28;3.60;;;8.80;99.90;;;;;;5075917;28;20663;-75
2021/04/25 07:39:36;;;;;;;5.97;3.78;;;8.90;99.90;;;;;;5067375;28;20206;-75
2021/04/25 07:42:03;;;;;;;6.82;4.32;;;9.00;99.90;;;;;;5074276;28;20208;-75
2021/04/25 07:44:32;;;;;;;8.32;4.90;;;9.00;99.90;;;;;;5073427;28;20264;-75
2021/04/25 07:46:59;;;;;;;6.85;4.90;;;9.00;99.90;;;;;;5068848;28;20197;-75
2021/04/25 07:49:26;;;;;;;7.78;5.32;;;9.10;99.90;;;;;;5068641;28;20205;-75
2021/04/25 07:51:54;;;;;;;8.38;6.43;;;9.20;99.90;;;;;;5072313;28;20209;-75
2021/04/25 07:54:23;;;;;;;9.15;6.32;;;9.20;99.90;;;;;;5071632;28;20198;-75
2021/04/25 07:56:51;;;;;;;10.48;7.50;;;9.30;99.90;;;;;;5068153;28;20273;-75
2021/04/25 07:59:17;;;;;;;9.45;6.07;;;9.30;99.90;;;;;;5068534;28;20782;-75
2021/04/25 08:01:43;;;;;;;8.25;6.22;;;9.50;99.90;;;;;;5065600;28;20197;-75
2021/04/25 08:04:10;;;;;;;8.23;5.90;;;9.50;99.90;;;;;;5076090;28;20229;-75
2021/04/25 08:06:36;;;;;;;10.10;5.50;;;9.60;99.90;;;;;;5070490;28;20231;-76
2021/04/25 08:09:03;;;;;;;7.80;5.55;;;9.60;99.60;;;;;;5072287;28;20200;-74
2021/04/25 08:11:30;;;;;;;11.38;5.70;;;9.50;99.50;;;;;;5072999;28;20200;-75
2021/04/25 08:13:57;;;;;;;11.48;5.55;;;9.50;99.90;;;;;;5071869;28;20243;-75
2021/04/25 08:16:24;;;;;;;12.23;5.68;;;9.70;99.70;;;;;;5067657;28;20197;-74
2021/04/25 08:18:50;;;;;;;9.70;6.32;;;9.70;99.50;;;;;;5072792;28;20220;-75
2021/04/25 08:21:16;;;;;;;10.80;6.93;;;9.80;99.30;;;;;;5067662;28;20212;-75
2021/04/25 08:23:43;;;;;;;8.88;6.50;;;9.80;98.60;;;;;;5067153;28;20213;-74
2021/04/25 08:26:10;;;;;;;12.13;7.85;;;9.80;98.90;;;;;;5070766;28;20228;-75
2021/04/25 08:28:36;;;;;;;11.35;8.02;;;9.90;98.70;;;;;;5067472;28;20674;-74
2021/04/25 08:31:04;;;;;;;9.45;7.95;;;9.90;98.50;;;;;;5067054;28;20235;-74
2021/04/25 08:33:30;;;;;;;11.30;9.23;;;9.80;98.30;;;;;;5073931;28;20201;-75
2021/04/25 08:35:57;;;;;;;12.23;9.00;;;9.80;97.90;;;;;;5071277;28;20208;-74
2021/04/25 08:38:23;;;;;;;9.10;8.18;;;9.80;98.10;;;;;;5065992;28;20557;-75
2021/04/25 08:40:49;;;;;;;8.48;7.63;;;10.10;98.40;;;;;;5072644;28;20205;-74
2021/04/25 08:43:16;;;;;;;10.40;7.25;;;10.70;98.20;;;;;;5064784;28;20197;-75
2021/04/25 08:45:46;;;;;;;12.05;6.13;;;11.40;97.10;;;;;;5067172;28;20220;-75
2021/04/25 08:48:14;;;;;;;10.00;6.15;;;11.90;95.50;;;;;;5075134;28;20204;-74
2021/04/25 08:50:41;;;;;;;6.55;5.13;;;12.40;95.10;;;;;;5067306;28;20201;-75
2021/04/25 08:53:11;;;;;;;6.72;5.85;;;13.00;93.60;;;;;;5072016;28;20591;-75
2021/04/25 08:55:38;;;;;;;11.82;6.40;;;13.20;92.80;;;;;;5070999;28;20210;-75
2021/04/25 08:58:05;;;;;;;5.20;4.70;;;13.20;91.20;;;;;;5071326;28;20200;-75
2021/04/25 09:00:32;;;;;;;7.15;4.97;;;13.20;91.10;;;;;;5071997;28;20223;-75
2021/04/25 09:02:58;;;;;;;6.78;5.30;;;13.00;90.40;;;;;;5070777;28;20472;-75
2021/04/25 09:05:25;;;;;;;5.68;5.18;;;12.70;90.60;;;;;;5066600;28;20255;-75
2021/04/25 09:07:54;;;;;;;10.05;5.20;;;12.60;90.80;;;;;;5069346;28;20219;-75
2021/04/25 09:10:24;;;;;;;5.45;4.82;;;12.40;90.20;;;;;;5076227;28;20231;-75
2021/04/25 09:12:51;;;;;;;10.25;5.43;;;12.10;91.20;;;;;;5072113;28;20272;-74
2021/04/25 09:15:30;;;;;;;7.32;4.88;;;11.90;91.40;;;;;;5070375;28;20200;-75
2021/04/25 09:17:58;;;;;;;7.55;5.22;;;12.00;91.20;;;;;;5072892;28;20255;-75
2021/04/25 09:20:40;;;;;;;8.48;5.53;;;12.00;91.10;;;;;;5066449;28;20251;-75
2021/04/25 09:23:09;;;;;;;8.18;5.00;;;11.90;91.00;;;;;;5065487;28;21010;-75
2021/04/25 09:25:36;;;;;;;13.60;5.45;;;11.90;90.90;;;;;;5071444;28;20229;-75
2021/04/25 09:28:17;;;;;;;6.53;5.15;;;12.00;91.40;;;;;;5065777;28;20223;-75
2021/04/25 09:30:57;;;;;;;5.75;5.25;;;12.10;90.80;;;;;;5069352;28;20204;-75
2021/04/25 09:33:27;;;;;;;16.13;5.38;;;12.30;91.00;;;;;;5072621;28;20200;-75
2021/04/25 09:35:56;;;;;;;5.80;4.88;;;12.20;90.10;;;;;;5065747;28;20601;-75
2021/04/25 09:38:23;;;;;;;4.72;4.28;;;12.20;90.30;;;;;;5065477;28;20263;-75
2021/04/25 09:40:51;;;;;;;9.93;4.88;;;12.40;90.30;;;;;;5066326;28;20207;-75
2021/04/25 09:43:19;;;;;;;4.60;4.20;;;12.50;90.90;;;;;;5076076;28;20197;-75
2021/04/25 09:45:47;;;;;;;5.68;4.95;;;12.80;90.40;;;;;;5066207;28;20238;-75
2021/04/25 09:48:26;;;;;;;7.43;5.35;;;13.00;89.60;;;;;;5065560;28;20212;-75
2021/04/25 09:51:11;;;;;;;6.60;5.70;;;13.00;88.20;;;;;;5065795;28;20201;-76
2021/04/25 09:53:40;;;;;;;8.05;5.70;;;12.90;87.20;;;;;;5065893;28;20209;-75
2021/04/25 09:56:07;;;;;;;7.63;5.32;;;12.80;87.00;;;;;;5065759;28;20195;-76
2021/04/25 09:58:34;;;;;;;7.07;4.95;;;12.60;87.20;;;;;;5065211;28;20221;-75
2021/04/25 10:01:01;;;;;;;8.00;4.57;;;12.60;88.00;;;;;;5065640;28;20229;-75
2021/04/25 10:04:52;;;;;;;8.70;4.70;;;12.90;86.90;;;;;;5112374;27;20583;-75
2021/04/25 10:07:18;;;;;;;5.30;4.63;;;13.00;88.00;;;;;;5103545;28;20204;-75
2021/04/25 10:09:44;;;;;;;10.10;5.93;;;13.10;87.10;;;;;;5104371;28;20196;-75
2021/04/25 10:12:11;;;;;;;11.52;5.07;;;13.20;87.10;;;;;;5102766;28;20572;-75
2021/04/25 10:14:38;;;;;;;7.57;5.03;;;13.20;89.90;;;;;;5107559;28;20280;-75
2021/04/25 10:17:05;;;;;;;4.80;4.40;;;13.50;87.70;;;;;;5110648;28;20200;-75
2021/04/25 10:19:31;;;;;;;8.05;4.72;;;13.90;85.00;;;;;;5110191;28;20207;-76
2021/04/25 10:21:59;;;;;;;7.53;5.65;;;14.00;85.90;;;;;;5108711;28;20211;-75
2021/04/25 10:24:25;;;;;;;6.88;4.32;;;14.60;85.50;;;;;;5106706;28;20223;-75
2021/04/25 10:27:00;;;;;;;6.28;4.93;;;15.40;86.00;;;;;;5108184;28;20206;-76
2021/04/25 10:29:32;;;;;;;5.45;4.93;;;16.00;82.70;;;;;;5102556;28;20201;-75
2021/04/25 10:32:03;;;;;;;13.23;5.13;;;16.40;82.10;;;;;;5103404;28;20346;-76
2021/04/25 10:34:29;;;;;;;9.07;5.10;;;16.40;78.60;;;;;;5102779;28;20200;-75
2021/04/25 10:37:02;;;;;;;5.82;5.28;;;16.50;78.60;;;;;;5102107;28;20210;-75
2021/04/25 10:39:37;;;;;;;7.35;5.13;;;16.80;78.40;;;;;;5110114;28;20218;-75
2021/04/25 10:42:30;;;;;;;8.65;5.65;;;17.10;76.90;;;;;;5102890;28;20210;-75
2021/04/25 10:45:28;;;;;;;7.38;5.95;;;17.20;75.40;;;;;;5106241;28;20225;-75
2021/04/25 10:48:23;;;;;;;4.90;4.07;;;17.30;75.60;;;;;;5097460;28;20207;-75
2021/04/25 10:50:51;;;;;;;4.90;4.50;;;17.60;73.50;;;;;;5047602;28;20212;-75
2021/04/25 10:53:24;;;;;;;6.70;4.07;;;17.50;70.60;;;;;;5051683;28;20236;-75
2021/04/25 10:55:52;;;;;;;8.82;4.50;;;17.80;71.70;;;;;;5040624;28;20475;-75
2021/04/25 10:58:22;;;;;;;5.38;4.88;;;18.10;71.00;;;;;;5040660;28;20208;-75
2021/04/25 11:00:50;;;;;;;8.45;4.72;;;17.90;69.20;;;;;;5047464;28;20229;-76
2021/04/25 11:03:41;;;;;;;7.45;4.95;;;17.50;70.70;;;;;;5041146;28;20246;-75
2021/04/25 11:06:27;;;;;;;6.35;4.90;;;17.20;68.90;;;;;;5048726;28;20268;-75
2021/04/25 11:08:55;;;;;;;8.23;5.03;;;16.50;71.20;;;;;;5051017;28;20284;-75
2021/04/25 11:11:33;;;;;;;6.40;5.07;;;15.70;72.00;;;;;;5029115;28;20232;-75
2021/04/25 11:14:00;;;;;;;5.28;4.78;;;15.10;70.60;;;;;;5042823;28;20201;-75
2021/04/25 11:16:28;;;;;;;6.57;4.50;;;14.60;72.70;;;;;;5042129;28;20206;-75
2021/04/25 11:18:58;;;;;;;6.35;5.75;;;14.30;73.20;;;;;;5039113;28;20204;-75
2021/04/25 11:21:54;;;;;;;6.13;5.53;;;14.00;76.00;;;;;;5041608;28;20204;-75
2021/04/25 11:24:42;;;;;;;6.50;4.10;;;13.70;73.50;;;;;;5042052;28;20253;-75
2021/04/25 11:27:30;;;;;;;5.72;4.97;;;13.40;76.10;;;;;;5080869;28;20204;-75
2021/04/25 11:30:02;;;;;;;7.10;4.30;;;13.40;75.80;;;;;;5087410;28;20509;-74
2021/04/25 11:32:31;;;;;;;13.27;5.10;;;13.30;75.90;;;;;;5097528;28;20205;-75
2021/04/25 11:35:00;;;;;;;6.80;4.53;;;13.10;75.90;;;;;;5088292;28;20272;-76
2021/04/25 11:37:27;;;;;;;7.93;4.93;;;13.00;75.80;;;;;;5090053;28;20208;-75
2021/04/25 11:39:57;;;;;;;11.90;5.30;;;12.90;77.50;;;;;;5088832;28;20211;-75
2021/04/25 11:42:30;;;;;;;11.30;5.60;;;12.70;77.10;;;;;;5086250;28;20215;-74
2021/04/25 11:44:58;;;;;;;8.15;4.78;;;12.80;77.60;;;;;;5087880;28;20295;-74
2021/04/25 11:47:29;;;;;;;6.57;5.32;;;12.80;79.00;;;;;;5088364;28;20207;-74
2021/04/25 11:49:56;;;;;;;6.82;5.63;;;12.70;77.20;;;;;;5093292;28;20212;-74
2021/04/25 11:52:24;;;;;;;6.30;4.80;;;12.70;78.50;;;;;;5092722;28;20642;-74
2021/04/25 11:55:01;;;;;;;7.43;5.32;;;12.70;77.60;;;;;;5093024;28;20281;-74
2021/04/25 11:57:29;;;;;;;8.38;4.25;;;12.70;78.60;;;;;;5087903;28;20207;-74
2021/04/25 11:59:57;;;;;;;11.95;3.63;;;12.60;77.30;;;;;;5087209;28;20212;-74
2021/04/25 12:02:25;;;;;;;7.63;4.53;;;12.60;79.20;;;;;;5087458;28;20222;-74
2021/04/25 12:04:53;;;;;;;5.40;3.80;;;12.60;79.10;;;;;;5087890;28;20230;-74
2021/04/25 12:07:51;;;;;;;8.60;4.95;;;12.60;78.60;;;;;;5087690;28;20223;-74
2021/04/25 12:10:25;;;;;;;7.28;4.95;;;12.50;78.20;;;;;;5042597;28;20228;-75
2021/04/25 12:13:08;;;;;;;10.00;5.57;;;12.60;80.80;;;;;;5042217;28;20202;-75
2021/04/25 12:15:45;;;;;;;4.47;3.75;;;12.50;78.70;;;;;;5037139;28;20206;-75
2021/04/25 12:18:13;;;;;;;7.85;4.82;;;12.50;79.80;;;;;;5038155;28;20227;-75
2021/04/25 12:20:44;;;;;;;10.18;4.82;;;12.60;79.70;;;;;;5040914;28;20208;-75
2021/04/25 12:23:16;;;;;;;6.78;4.90;;;12.50;78.70;;;;;;5041956;28;20353;-75
2021/04/25 12:25:44;;;;;;;9.35;5.82;;;12.40;79.50;;;;;;5040387;28;20206;-75
2021/04/25 12:28:10;;;;;;;7.38;5.15;;;12.40;83.90;;;;;;5037169;28;20221;-75
2021/04/25 12:30:37;;;;;;;8.60;5.20;;;12.50;80.00;;;;;;5041268;28;20241;-75
2021/04/25 12:33:07;;;;;;;9.88;5.15;;;12.50;78.80;;;;;;5040399;28;20306;-75
2021/04/25 12:35:35;;;;;;;11.13;5.22;;;12.50;81.20;;;;;;5040385;28;20201;-75
2021/04/25 12:38:18;;;;;;;6.60;4.70;;;12.50;78.50;;;;;;5041408;28;20201;-75
2021/04/25 12:40:53;;;;;;;9.50;5.20;;;12.50;78.30;;;;;;5040667;28;20204;-75
2021/04/25 12:43:20;;;;;;;6.97;4.82;;;12.50;78.00;;;;;;5042960;28;20282;-75
2021/04/25 12:45:47;;;;;;;5.93;5.22;;;12.60;77.90;;;;;;5101305;28;20230;-75
2021/04/25 12:48:33;;;;;;;7.20;5.05;;;12.60;79.90;;;;;;5097398;28;20207;-75
2021/04/25 12:51:18;;;;;;;6.15;5.55;;;12.60;78.60;;;;;;5090080;28;20210;-75
2021/04/25 12:53:58;;;;;;;8.73;5.05;;;12.70;79.80;;;;;;5102422;28;20208;-75
2021/04/25 12:56:28;;;;;;;7.18;5.43;;;12.80;80.40;;;;;;5095696;28;20200;-75
2021/04/25 12:59:14;;;;;;;12.55;5.35;;;12.90;81.00;;;;;;5097724;28;20208;-75